Time,TemperatureF,DewpointF,PressureIn,WindDirection,WindDirectionDegrees,WindSpeedMPH,WindSpeedGustMPH,Humidity,HourlyPrecipIn,Conditions,Clouds,dailyrainin,SoftwareType,DateUTC
2013-04-17 00:09:00,45.1,34.0,29.96,ENE,67,14.0,-999.0,65,-99.99,,,0.00,Acu-Link.com,2013-04-17 05:09:00,
2013-04-17 00:24:00,45.1,34.0,29.96,East,90,7.3,-999.0,65,-99.99,,,0.00,Acu-Link.com,2013-04-17 05:24:00,
2013-04-17 00:39:00,45.1,34.4,29.96,East,90,11.4,-999.0,66,-99.99,,,0.00,Acu-Link.com,2013-04-17 05:39:00,
2013-04-17 00:54:00,45.1,34.4,29.95,East,90,11.9,-999.0,66,-99.99,,,0.00,Acu-Link.com,2013-04-17 05:54:00,
2013-04-17 01:09:00,45.0,34.7,29.95,ENE,67,11.4,-999.0,67,-99.99,,,0.00,Acu-Link.com,2013-04-17 06:09:00,
2013-04-17 01:24:00,45.0,34.7,29.93,East,90,15.0,-999.0,67,-99.99,,,0.00,Acu-Link.com,2013-04-17 06:24:00,
2013-04-17 01:39:00,45.0,34.7,29.93,ENE,67,15.0,-999.0,67,-99.99,,,0.00,Acu-Link.com,2013-04-17 06:39:00,
2013-04-17 01:54:00,43.0,36.9,29.91,East,90,13.5,-999.0,79,-99.99,,,0.01,Acu-Link.com,2013-04-17 06:54:00,
2013-04-17 02:09:00,43.0,36.9,29.90,ENE,67,10.9,-999.0,79,-99.99,,,0.01,Acu-Link.com,2013-04-17 07:09:00,
2013-04-17 02:24:00,43.3,36.3,29.91,East,90,8.3,-999.0,76,-99.99,,,0.01,Acu-Link.com,2013-04-17 07:24:00,
2013-04-17 02:39:00,43.5,36.4,29.89,ENE,67,11.4,-999.0,76,-99.99,,,0.01,Acu-Link.com,2013-04-17 07:39:00,
2013-04-17 02:54:00,43.7,36.0,29.89,East,90,11.4,-999.0,74,-99.99,,,0.01,Acu-Link.com,2013-04-17 07:54:00,
2013-04-17 03:09:00,43.7,36.3,29.87,East,90,10.4,-999.0,75,-99.99,,,0.01,Acu-Link.com,2013-04-17 08:09:00,
2013-04-17 03:24:00,43.3,36.3,29.87,ENE,67,10.4,-999.0,76,-99.99,,,0.01,Acu-Link.com,2013-04-17 08:24:00,
2013-04-17 03:40:00,43.3,36.6,29.86,ESE,112,10.4,-999.0,77,-99.99,,,0.01,Acu-Link.com,2013-04-17 08:40:00,
2013-04-17 03:55:00,43.3,36.3,29.85,East,90,11.4,-999.0,76,-99.99,,,0.01,Acu-Link.com,2013-04-17 08:55:00,
2013-04-17 04:10:00,43.3,36.6,29.85,ENE,67,9.4,-999.0,77,-99.99,,,0.01,Acu-Link.com,2013-04-17 09:10:00,
2013-04-17 04:25:00,43.2,36.8,29.83,ENE,67,11.4,-999.0,78,-99.99,,,0.01,Acu-Link.com,2013-04-17 09:25:00,
2013-04-17 04:40:00,42.3,37.5,29.83,NE,45,8.3,-999.0,83,-99.99,,,0.02,Acu-Link.com,2013-04-17 09:40:00,
2013-04-17 04:55:00,42.3,37.2,29.82,ENE,67,9.9,-999.0,82,-99.99,,,0.02,Acu-Link.com,2013-04-17 09:55:00,
2013-04-17 05:10:00,41.9,37.4,29.80,ENE,67,14.0,-999.0,84,-99.99,,,0.02,Acu-Link.com,2013-04-17 10:10:00,
2013-04-17 05:25:00,41.2,37.9,29.78,ENE,67,11.4,-999.0,88,-99.99,,,0.03,Acu-Link.com,2013-04-17 10:25:00,
2013-04-17 05:40:00,41.0,38.3,29.82,East,90,4.7,-999.0,90,-99.99,,,0.06,Acu-Link.com,2013-04-17 10:40:00,
2013-04-17 05:55:00,40.6,39.0,29.89,East,90,1.7,-999.0,94,-99.99,,,0.11,Acu-Link.com,2013-04-17 10:55:00,
2013-04-17 06:10:00,40.1,39.1,29.85,NE,45,5.8,-999.0,96,-99.99,,,0.44,Acu-Link.com,2013-04-17 11:10:00,
2013-04-17 06:26:00,39.9,39.4,29.82,ENE,67,11.4,-999.0,98,-99.99,,,0.57,Acu-Link.com,2013-04-17 11:26:00,
2013-04-17 06:41:00,39.9,39.6,29.80,ENE,67,9.9,-999.0,99,-99.99,,,0.68,Acu-Link.com,2013-04-17 11:41:00,
2013-04-17 06:56:00,39.9,39.6,29.70,NE,45,15.0,-999.0,99,-99.99,,,0.75,Acu-Link.com,2013-04-17 11:56:00,
2013-04-17 07:11:00,39.9,39.6,29.75,ENE,67,12.5,-999.0,99,-99.99,,,0.89,Acu-Link.com,2013-04-17 12:11:00,
2013-04-17 07:26:00,40.3,39.8,29.75,ESE,112,15.5,-999.0,98,-99.99,,,0.97,Acu-Link.com,2013-04-17 12:26:00,
2013-04-17 07:41:00,40.1,39.8,29.73,ENE,67,8.3,-999.0,99,-99.99,,,1.03,Acu-Link.com,2013-04-17 12:41:00,
2013-04-17 07:56:00,40.5,40.2,29.77,NE,45,6.8,-999.0,99,-99.99,,,1.05,Acu-Link.com,2013-04-17 12:56:00,
2013-04-17 08:11:00,40.6,40.3,29.75,NE,45,5.3,-999.0,99,-99.99,,,1.05,Acu-Link.com,2013-04-17 13:11:00,
2013-04-17 08:41:00,40.8,40.5,29.82,WNW,292,6.3,-999.0,99,-99.99,,,1.10,Acu-Link.com,2013-04-17 13:41:00,
2013-04-17 08:57:00,40.6,40.3,29.78,NNW,337,6.8,-999.0,99,-99.99,,,1.29,Acu-Link.com,2013-04-17 13:57:00,
2013-04-17 09:12:00,40.6,40.3,29.78,NNW,337,4.2,-999.0,99,-99.99,,,1.32,Acu-Link.com,2013-04-17 14:12:00,
2013-04-17 09:27:00,40.6,40.3,29.79,North,0,4.7,-999.0,99,-99.99,,,1.32,Acu-Link.com,2013-04-17 14:27:00,
2013-04-17 09:42:00,40.8,40.5,29.78,NNE,22,5.8,-999.0,99,-99.99,,,1.32,Acu-Link.com,2013-04-17 14:42:00,
2013-04-17 09:58:00,41.0,40.7,29.77,NE,45,7.3,-999.0,99,-99.99,,,1.32,Acu-Link.com,2013-04-17 14:58:00,
2013-04-17 10:13:00,41.0,40.7,29.79,North,0,2.7,-999.0,99,-99.99,,,1.33,Acu-Link.com,2013-04-17 15:13:00,
2013-04-17 10:28:00,41.4,41.1,29.75,WNW,292,5.3,-999.0,99,-99.99,,,1.33,Acu-Link.com,2013-04-17 15:28:00,
2013-04-17 10:43:00,41.5,41.2,29.76,NNW,337,3.7,-999.0,99,-99.99,,,1.33,Acu-Link.com,2013-04-17 15:43:00,
2013-04-17 10:58:00,41.9,41.6,29.73,NNE,22,4.7,-999.0,99,-99.99,,,1.33,Acu-Link.com,2013-04-17 15:58:00,
2013-04-17 11:13:00,42.3,42.0,29.73,NNE,22,5.8,-999.0,99,-99.99,,,1.34,Acu-Link.com,2013-04-17 16:13:00,
2013-04-17 11:29:00,42.4,41.9,29.71,NNW,337,7.8,-999.0,98,-99.99,,,1.34,Acu-Link.com,2013-04-17 16:29:00,
2013-04-17 11:44:00,42.3,41.8,29.70,East,90,6.3,-999.0,98,-99.99,,,1.34,Acu-Link.com,2013-04-17 16:44:00,
2013-04-17 11:59:00,42.3,41.8,29.72,NNE,22,6.8,-999.0,98,-99.99,,,1.34,Acu-Link.com,2013-04-17 16:59:00,
2013-04-17 12:14:00,42.4,41.9,29.70,ESE,112,6.8,-999.0,98,-99.99,,,1.34,Acu-Link.com,2013-04-17 17:14:00,
2013-04-17 12:29:00,42.6,42.1,29.71,NW,315,7.3,-999.0,98,-99.99,,,1.34,Acu-Link.com,2013-04-17 17:29:00,
2013-04-17 12:44:00,42.8,42.5,29.66,NNW,337,8.9,-999.0,99,-99.99,,,1.35,Acu-Link.com,2013-04-17 17:44:00,
2013-04-17 13:00:00,42.3,42.0,29.72,NNE,22,6.8,-999.0,99,-99.99,,,1.35,Acu-Link.com,2013-04-17 18:00:00,
2013-04-17 13:15:00,42.3,42.0,29.68,NNE,22,8.3,-999.0,99,-99.99,,,1.35,Acu-Link.com,2013-04-17 18:15:00,
2013-04-17 13:30:00,42.1,41.8,29.69,North,0,6.3,-999.0,99,-99.99,,,1.35,Acu-Link.com,2013-04-17 18:30:00,
2013-04-17 13:45:00,41.9,41.6,29.67,NNW,337,9.4,-999.0,99,-99.99,,,1.35,Acu-Link.com,2013-04-17 18:45:00,
2013-04-17 14:00:00,42.1,41.8,29.67,NW,315,11.4,-999.0,99,-99.99,,,1.35,Acu-Link.com,2013-04-17 19:00:00,
2013-04-17 14:15:00,42.1,41.8,29.69,NW,315,7.8,-999.0,99,-99.99,,,1.35,Acu-Link.com,2013-04-17 19:15:00,
2013-04-17 14:30:00,41.9,41.6,29.65,NNE,22,8.3,-999.0,99,-99.99,,,1.35,Acu-Link.com,2013-04-17 19:30:00,
2013-04-17 14:45:00,42.4,42.1,29.69,NW,315,12.5,-999.0,99,-99.99,,,1.36,Acu-Link.com,2013-04-17 19:45:00,
2013-04-17 15:00:00,42.1,41.8,29.65,NNE,22,13.0,-999.0,99,-99.99,,,1.36,Acu-Link.com,2013-04-17 20:00:00,
2013-04-17 15:15:00,42.1,41.8,29.54,NE,45,17.6,-999.0,99,-99.99,,,1.37,Acu-Link.com,2013-04-17 20:15:00,
2013-04-17 15:31:00,42.4,42.1,29.62,North,0,9.9,-999.0,99,-99.99,,,1.38,Acu-Link.com,2013-04-17 20:31:00,
2013-04-17 15:46:00,42.6,42.3,29.65,NNW,337,4.7,-999.0,99,-99.99,,,1.38,Acu-Link.com,2013-04-17 20:46:00,
2013-04-17 16:01:00,43.0,42.7,29.61,NNE,22,6.8,-999.0,99,-99.99,,,1.38,Acu-Link.com,2013-04-17 21:01:00,
2013-04-17 16:17:00,43.0,42.7,29.61,North,0,9.4,-999.0,99,-99.99,,,1.38,Acu-Link.com,2013-04-17 21:17:00,
2013-04-17 16:32:00,43.0,42.7,29.66,WNW,292,8.9,-999.0,99,-99.99,,,1.38,Acu-Link.com,2013-04-17 21:32:00,
2013-04-17 16:47:00,42.8,42.5,29.66,NW,315,8.3,-999.0,99,-99.99,,,1.38,Acu-Link.com,2013-04-17 21:47:00,
2013-04-17 17:02:00,42.8,42.5,29.70,West,270,7.8,-999.0,99,-99.99,,,1.46,Acu-Link.com,2013-04-17 22:02:00,
2013-04-17 17:17:00,42.4,42.1,29.68,NNE,22,5.3,-999.0,99,-99.99,,,1.62,Acu-Link.com,2013-04-17 22:17:00,
2013-04-17 17:32:00,42.1,41.8,29.59,NNE,22,14.0,-999.0,99,-99.99,,,1.71,Acu-Link.com,2013-04-17 22:32:00,
2013-04-17 17:47:00,42.3,42.0,29.49,NNE,22,15.0,-999.0,99,-99.99,,,1.81,Acu-Link.com,2013-04-17 22:47:00,
2013-04-17 18:03:00,42.1,41.8,29.48,East,90,13.5,-999.0,99,-99.99,,,1.91,Acu-Link.com,2013-04-17 23:03:00,
2013-04-17 18:18:00,42.1,41.8,29.57,NNE,22,3.7,-999.0,99,-99.99,,,1.91,Acu-Link.com,2013-04-17 23:18:00,
2013-04-17 18:33:00,41.9,41.4,29.56,NNE,22,8.9,-999.0,98,-99.99,,,1.92,Acu-Link.com,2013-04-17 23:33:00,
2013-04-17 18:48:00,41.9,41.1,29.62,NNE,22,6.3,-999.0,97,-99.99,,,1.92,Acu-Link.com,2013-04-17 23:48:00,
2013-04-17 19:03:00,41.5,40.7,29.61,NW,315,9.4,-999.0,97,-99.99,,,1.92,Acu-Link.com,2013-04-18 00:03:00,
2013-04-17 19:18:00,41.4,40.6,29.61,NW,315,11.9,-999.0,97,-99.99,,,1.92,Acu-Link.com,2013-04-18 00:18:00,
2013-04-17 19:33:00,41.2,40.4,29.63,NW,315,14.0,-999.0,97,-99.99,,,1.92,Acu-Link.com,2013-04-18 00:33:00,
2013-04-17 19:48:00,41.0,40.2,29.64,WNW,292,12.5,-999.0,97,-99.99,,,1.92,Acu-Link.com,2013-04-18 00:48:00,
2013-04-17 20:03:00,40.8,39.7,29.64,NNW,337,10.9,-999.0,96,-99.99,,,1.92,Acu-Link.com,2013-04-18 01:03:00,
2013-04-17 20:19:00,40.6,39.6,29.63,NW,315,13.0,-999.0,96,-99.99,,,1.92,Acu-Link.com,2013-04-18 01:19:00,
2013-04-17 20:34:00,40.5,39.7,29.64,NW,315,10.4,-999.0,97,-99.99,,,1.92,Acu-Link.com,2013-04-18 01:34:00,
2013-04-17 20:49:00,40.1,39.3,29.63,NNW,337,18.1,-999.0,97,-99.99,,,1.92,Acu-Link.com,2013-04-18 01:49:00,
2013-04-17 21:04:00,39.7,38.9,29.65,NW,315,15.0,-999.0,97,-99.99,,,1.92,Acu-Link.com,2013-04-18 02:04:00,
2013-04-17 21:19:00,39.6,38.8,29.65,NNW,337,11.9,-999.0,97,-99.99,,,1.92,Acu-Link.com,2013-04-18 02:19:00,
2013-04-17 21:34:00,39.4,38.1,29.65,NW,315,20.2,-999.0,95,-99.99,,,1.92,Acu-Link.com,2013-04-18 02:34:00,
2013-04-17 21:49:00,39.0,37.7,29.65,NW,315,15.0,-999.0,95,-99.99,,,1.92,Acu-Link.com,2013-04-18 02:49:00,
2013-04-17 22:04:00,38.8,37.5,29.63,NNW,337,14.0,-999.0,95,-99.99,,,1.92,Acu-Link.com,2013-04-18 03:04:00,
2013-04-17 22:19:00,38.7,37.4,29.62,NNW,337,15.0,-999.0,95,-99.99,,,1.92,Acu-Link.com,2013-04-18 03:19:00,
2013-04-17 22:34:00,38.7,37.4,29.65,NNW,337,14.5,-999.0,95,-99.99,,,1.92,Acu-Link.com,2013-04-18 03:34:00,
2013-04-17 22:49:00,38.5,37.2,29.65,North,0,15.5,-999.0,95,-99.99,,,1.92,Acu-Link.com,2013-04-18 03:49:00,
2013-04-17 23:05:00,38.1,36.8,29.60,NNE,22,21.2,-999.0,95,-99.99,,,1.93,Acu-Link.com,2013-04-18 04:05:00,
2013-04-17 23:20:00,37.9,36.9,29.60,NW,315,12.5,-999.0,96,-99.99,,,2.01,Acu-Link.com,2013-04-18 04:20:00,
2013-04-17 23:35:00,37.8,36.8,29.59,NNW,337,21.2,-999.0,96,-99.99,,,2.02,Acu-Link.com,2013-04-18 04:35:00,
2013-04-17 23:50:00,37.4,36.6,29.65,NW,315,10.4,-999.0,97,-99.99,,,2.02,Acu-Link.com,2013-04-18 04:50:00,